sensor_id;sensor_type;location;lat;lon;timestamp;P1;durP1;ratioP1;P2;durP2;ratioP2
37657;SDS011;23500;53.268;8.308;2023-09-19T00:00:40;2.30;;;1.90;;
37657;SDS011;23500;53.268;8.308;2023-09-19T00:03:06;1.45;;;1.30;;
37657;SDS011;23500;53.268;8.308;2023-09-19T00:05:36;2.40;;;1.58;;
37657;SDS011;23500;53.268;8.308;2023-09-19T00:08:09;3.60;;;1.40;;
37657;SDS011;23500;53.268;8.308;2023-09-19T00:10:35;1.77;;;1.30;;
37657;SDS011;23500;53.268;8.308;2023-09-19T00:13:02;1.85;;;1.30;;
37657;SDS011;23500;53.268;8.308;2023-09-19T00:15:30;1.73;;;1.40;;
37657;SDS011;23500;53.268;8.308;2023-09-19T00:18:01;1.42;;;1.33;;
37657;SDS011;23500;53.268;8.308;2023-09-19T00:20:27;2.08;;;1.27;;
37657;SDS011;23500;53.268;8.308;2023-09-19T00:22:55;1.52;;;1.23;;
37657;SDS011;23500;53.268;8.308;2023-09-19T00:25:21;1.65;;;1.55;;
37657;SDS011;23500;53.268;8.308;2023-09-19T00:27:47;1.85;;;1.50;;
37657;SDS011;23500;53.268;8.308;2023-09-19T00:30:16;1.70;;;1.60;;
37657;SDS011;23500;53.268;8.308;2023-09-19T00:32:46;2.17;;;1.30;;
37657;SDS011;23500;53.268;8.308;2023-09-19T00:35:13;1.70;;;1.40;;
37657;SDS011;23500;53.268;8.308;2023-09-19T00:37:40;1.55;;;1.33;;
37657;SDS011;23500;53.268;8.308;2023-09-19T00:40:07;1.50;;;1.40;;
37657;SDS011;23500;53.268;8.308;2023-09-19T00:42:41;1.98;;;1.55;;
37657;SDS011;23500;53.268;8.308;2023-09-19T00:45:11;1.60;;;1.23;;
37657;SDS011;23500;53.268;8.308;2023-09-19T00:47:41;2.00;;;1.50;;
37657;SDS011;23500;53.268;8.308;2023-09-19T00:50:11;1.40;;;1.30;;
37657;SDS011;23500;53.268;8.308;2023-09-19T00:52:39;1.50;;;1.40;;
37657;SDS011;23500;53.268;8.308;2023-09-19T00:55:10;1.70;;;1.38;;
37657;SDS011;23500;53.268;8.308;2023-09-19T00:57:39;1.27;;;1.17;;
37657;SDS011;23500;53.268;8.308;2023-09-19T01:00:06;1.73;;;1.23;;
37657;SDS011;23500;53.268;8.308;2023-09-19T01:02:34;1.50;;;1.23;;
37657;SDS011;23500;53.268;8.308;2023-09-19T01:05:00;2.13;;;1.30;;
37657;SDS011;23500;53.268;8.308;2023-09-19T01:07:27;1.10;;;1.00;;
37657;SDS011;23500;53.268;8.308;2023-09-19T01:09:59;1.58;;;1.33;;
37657;SDS011;23500;53.268;8.308;2023-09-19T01:15:18;1.85;;;1.38;;
37657;SDS011;23500;53.268;8.308;2023-09-19T01:31:19;1.52;;;1.40;;
37657;SDS011;23500;53.268;8.308;2023-09-19T01:33:56;1.50;;;1.20;;
37657;SDS011;23500;53.268;8.308;2023-09-19T01:36:29;1.92;;;1.10;;
37657;SDS011;23500;53.268;8.308;2023-09-19T01:39:02;1.35;;;1.15;;
37657;SDS011;23500;53.268;8.308;2023-09-19T01:44:21;1.30;;;1.20;;
37657;SDS011;23500;53.268;8.308;2023-09-19T01:46:55;1.83;;;1.30;;
37657;SDS011;23500;53.268;8.308;2023-09-19T01:52:14;1.55;;;1.35;;
37657;SDS011;23500;53.268;8.308;2023-09-19T01:54:51;1.40;;;1.15;;
37657;SDS011;23500;53.268;8.308;2023-09-19T02:00:11;2.22;;;1.50;;
37657;SDS011;23500;53.268;8.308;2023-09-19T02:02:38;1.63;;;1.00;;
37657;SDS011;23500;53.268;8.308;2023-09-19T02:05:07;1.50;;;1.40;;
37657;SDS011;23500;53.268;8.308;2023-09-19T02:07:33;1.63;;;1.20;;
37657;SDS011;23500;53.268;8.308;2023-09-19T02:10:00;1.48;;;1.10;;
37657;SDS011;23500;53.268;8.308;2023-09-19T02:12:28;1.58;;;1.20;;
37657;SDS011;23500;53.268;8.308;2023-09-19T02:14:55;2.13;;;1.20;;
37657;SDS011;23500;53.268;8.308;2023-09-19T02:17:22;1.30;;;1.20;;
37657;SDS011;23500;53.268;8.308;2023-09-19T02:19:51;1.00;;;1.00;;
37657;SDS011;23500;53.268;8.308;2023-09-19T02:22:18;1.00;;;0.90;;
37657;SDS011;23500;53.268;8.308;2023-09-19T02:24:44;4.53;;;1.30;;
37657;SDS011;23500;53.268;8.308;2023-09-19T02:27:13;1.30;;;1.02;;
37657;SDS011;23500;53.268;8.308;2023-09-19T02:29:41;1.40;;;1.30;;
37657;SDS011;23500;53.268;8.308;2023-09-19T02:32:07;1.52;;;1.42;;
37657;SDS011;23500;53.268;8.308;2023-09-19T02:34:34;2.00;;;1.10;;
37657;SDS011;23500;53.268;8.308;2023-09-19T02:37:02;1.13;;;1.00;;
37657;SDS011;23500;53.268;8.308;2023-09-19T02:39:30;0.93;;;0.93;;
37657;SDS011;23500;53.268;8.308;2023-09-19T02:41:56;1.20;;;1.10;;
37657;SDS011;23500;53.268;8.308;2023-09-19T02:44:22;1.65;;;1.15;;
37657;SDS011;23500;53.268;8.308;2023-09-19T02:46:49;1.13;;;1.02;;
37657;SDS011;23500;53.268;8.308;2023-09-19T02:49:15;1.50;;;1.08;;
37657;SDS011;23500;53.268;8.308;2023-09-19T02:51:42;2.22;;;1.20;;
37657;SDS011;23500;53.268;8.308;2023-09-19T02:54:08;1.60;;;1.20;;
37657;SDS011;23500;53.268;8.308;2023-09-19T02:56:35;1.90;;;1.27;;
37657;SDS011;23500;53.268;8.308;2023-09-19T02:59:01;1.42;;;1.13;;
37657;SDS011;23500;53.268;8.308;2023-09-19T03:01:28;1.10;;;1.00;;
37657;SDS011;23500;53.268;8.308;2023-09-19T03:03:54;1.25;;;1.10;;
37657;SDS011;23500;53.268;8.308;2023-09-19T03:06:20;1.10;;;1.00;;
37657;SDS011;23500;53.268;8.308;2023-09-19T03:08:46;1.27;;;1.00;;
37657;SDS011;23500;53.268;8.308;2023-09-19T03:11:14;1.33;;;1.23;;
37657;SDS011;23500;53.268;8.308;2023-09-19T03:13:43;1.17;;;1.08;;
37657;SDS011;23500;53.268;8.308;2023-09-19T03:16:11;1.38;;;1.15;;
37657;SDS011;23500;53.268;8.308;2023-09-19T03:18:36;1.30;;;1.20;;
37657;SDS011;23500;53.268;8.308;2023-09-19T03:21:02;1.55;;;1.00;;
37657;SDS011;23500;53.268;8.308;2023-09-19T03:23:28;1.35;;;0.90;;
37657;SDS011;23500;53.268;8.308;2023-09-19T03:25:54;1.25;;;1.00;;
37657;SDS011;23500;53.268;8.308;2023-09-19T03:28:21;1.77;;;1.08;;
37657;SDS011;23500;53.268;8.308;2023-09-19T03:30:58;1.35;;;1.00;;
37657;SDS011;23500;53.268;8.308;2023-09-19T03:33:27;1.33;;;1.13;;
37657;SDS011;23500;53.268;8.308;2023-09-19T03:35:53;1.33;;;1.20;;
37657;SDS011;23500;53.268;8.308;2023-09-19T03:38:19;1.63;;;1.00;;
37657;SDS011;23500;53.268;8.308;2023-09-19T03:40:46;1.40;;;1.10;;
37657;SDS011;23500;53.268;8.308;2023-09-19T03:43:12;1.35;;;1.10;;
37657;SDS011;23500;53.268;8.308;2023-09-19T03:45:39;1.20;;;1.10;;
37657;SDS011;23500;53.268;8.308;2023-09-19T03:48:11;1.13;;;1.02;;
37657;SDS011;23500;53.268;8.308;2023-09-19T03:50:37;0.93;;;0.80;;
37657;SDS011;23500;53.268;8.308;2023-09-19T03:53:04;1.40;;;0.93;;
37657;SDS011;23500;53.268;8.308;2023-09-19T03:55:30;1.25;;;1.10;;
37657;SDS011;23500;53.268;8.308;2023-09-19T03:57:56;0.95;;;0.80;;
37657;SDS011;23500;53.268;8.308;2023-09-19T04:00:22;2.67;;;1.20;;
37657;SDS011;23500;53.268;8.308;2023-09-19T04:02:51;1.45;;;1.00;;
37657;SDS011;23500;53.268;8.308;2023-09-19T04:05:18;1.27;;;1.00;;
37657;SDS011;23500;53.268;8.308;2023-09-19T04:07:44;1.35;;;1.23;;
37657;SDS011;23500;53.268;8.308;2023-09-19T04:10:10;1.88;;;1.20;;
37657;SDS011;23500;53.268;8.308;2023-09-19T04:12:39;1.20;;;1.08;;
37657;SDS011;23500;53.268;8.308;2023-09-19T04:15:05;1.63;;;0.95;;
37657;SDS011;23500;53.268;8.308;2023-09-19T04:17:32;1.08;;;0.98;;
37657;SDS011;23500;53.268;8.308;2023-09-19T04:19:58;1.10;;;1.00;;
37657;SDS011;23500;53.268;8.308;2023-09-19T04:22:25;1.02;;;0.88;;
37657;SDS011;23500;53.268;8.308;2023-09-19T04:24:51;1.50;;;0.88;;
37657;SDS011;23500;53.268;8.308;2023-09-19T04:27:16;1.52;;;1.33;;
37657;SDS011;23500;53.268;8.308;2023-09-19T04:29:43;1.92;;;1.30;;
37657;SDS011;23500;53.268;8.308;2023-09-19T04:32:09;4.65;;;1.45;;
37657;SDS011;23500;53.268;8.308;2023-09-19T04:34:35;3.20;;;1.52;;
37657;SDS011;23500;53.268;8.308;2023-09-19T04:37:03;2.90;;;1.42;;
37657;SDS011;23500;53.268;8.308;2023-09-19T04:39:29;2.35;;;1.50;;
37657;SDS011;23500;53.268;8.308;2023-09-19T04:41:55;3.25;;;1.35;;
37657;SDS011;23500;53.268;8.308;2023-09-19T04:44:22;2.65;;;1.55;;
37657;SDS011;23500;53.268;8.308;2023-09-19T04:46:47;2.42;;;1.33;;
37657;SDS011;23500;53.268;8.308;2023-09-19T04:49:13;5.10;;;1.70;;
37657;SDS011;23500;53.268;8.308;2023-09-19T04:51:39;4.15;;;1.55;;
37657;SDS011;23500;53.268;8.308;2023-09-19T04:54:05;5.38;;;1.40;;
37657;SDS011;23500;53.268;8.308;2023-09-19T04:56:31;8.18;;;1.95;;
37657;SDS011;23500;53.268;8.308;2023-09-19T04:58:58;5.28;;;1.92;;
37657;SDS011;23500;53.268;8.308;2023-09-19T05:01:24;6.18;;;1.85;;
37657;SDS011;23500;53.268;8.308;2023-09-19T05:03:50;5.13;;;1.92;;
37657;SDS011;23500;53.268;8.308;2023-09-19T05:06:19;6.18;;;2.22;;
37657;SDS011;23500;53.268;8.308;2023-09-19T05:08:46;7.03;;;2.20;;
37657;SDS011;23500;53.268;8.308;2023-09-19T05:11:16;10.68;;;2.65;;
37657;SDS011;23500;53.268;8.308;2023-09-19T05:13:43;5.97;;;2.25;;
37657;SDS011;23500;53.268;8.308;2023-09-19T05:16:09;8.50;;;2.13;;
37657;SDS011;23500;53.268;8.308;2023-09-19T05:18:35;6.35;;;1.83;;
37657;SDS011;23500;53.268;8.308;2023-09-19T05:21:04;5.85;;;2.13;;
37657;SDS011;23500;53.268;8.308;2023-09-19T05:23:30;7.38;;;2.13;;
37657;SDS011;23500;53.268;8.308;2023-09-19T05:25:56;4.60;;;1.98;;
37657;SDS011;23500;53.268;8.308;2023-09-19T05:28:24;4.93;;;2.28;;
37657;SDS011;23500;53.268;8.308;2023-09-19T05:30:50;4.45;;;1.90;;
37657;SDS011;23500;53.268;8.308;2023-09-19T05:33:18;4.70;;;3.00;;
37657;SDS011;23500;53.268;8.308;2023-09-19T05:35:44;6.35;;;2.47;;
37657;SDS011;23500;53.268;8.308;2023-09-19T05:38:12;5.93;;;2.55;;
37657;SDS011;23500;53.268;8.308;2023-09-19T05:40:39;5.97;;;2.08;;
37657;SDS011;23500;53.268;8.308;2023-09-19T05:43:07;5.68;;;2.40;;
37657;SDS011;23500;53.268;8.308;2023-09-19T05:45:36;5.85;;;2.25;;
37657;SDS011;23500;53.268;8.308;2023-09-19T05:48:10;5.05;;;2.20;;
37657;SDS011;23500;53.268;8.308;2023-09-19T05:50:39;4.68;;;2.10;;
37657;SDS011;23500;53.268;8.308;2023-09-19T05:53:05;4.30;;;2.30;;
37657;SDS011;23500;53.268;8.308;2023-09-19T05:55:34;7.57;;;2.28;;
37657;SDS011;23500;53.268;8.308;2023-09-19T05:58:00;7.22;;;2.08;;
37657;SDS011;23500;53.268;8.308;2023-09-19T06:00:28;8.02;;;2.22;;
37657;SDS011;23500;53.268;8.308;2023-09-19T06:02:55;6.25;;;2.22;;
37657;SDS011;23500;53.268;8.308;2023-09-19T06:05:22;6.55;;;2.10;;
37657;SDS011;23500;53.268;8.308;2023-09-19T06:07:49;5.13;;;2.10;;
37657;SDS011;23500;53.268;8.308;2023-09-19T06:10:17;5.53;;;2.10;;
37657;SDS011;23500;53.268;8.308;2023-09-19T06:12:43;5.38;;;2.30;;
37657;SDS011;23500;53.268;8.308;2023-09-19T06:15:12;5.65;;;2.00;;
37657;SDS011;23500;53.268;8.308;2023-09-19T06:17:47;4.82;;;2.40;;
37657;SDS011;23500;53.268;8.308;2023-09-19T06:20:24;4.45;;;1.75;;
37657;SDS011;23500;53.268;8.308;2023-09-19T06:22:51;3.47;;;2.10;;
37657;SDS011;23500;53.268;8.308;2023-09-19T06:25:18;6.88;;;2.15;;
37657;SDS011;23500;53.268;8.308;2023-09-19T06:27:51;3.58;;;1.70;;
37657;SDS011;23500;53.268;8.308;2023-09-19T06:30:19;3.30;;;1.80;;
37657;SDS011;23500;53.268;8.308;2023-09-19T06:32:45;3.75;;;1.90;;
37657;SDS011;23500;53.268;8.308;2023-09-19T06:35:11;5.20;;;2.35;;
37657;SDS011;23500;53.268;8.308;2023-09-19T06:37:39;3.67;;;1.92;;
37657;SDS011;23500;53.268;8.308;2023-09-19T06:43:00;3.78;;;2.00;;
37657;SDS011;23500;53.268;8.308;2023-09-19T06:45:27;3.42;;;1.85;;
37657;SDS011;23500;53.268;8.308;2023-09-19T06:47:53;4.63;;;1.90;;
37657;SDS011;23500;53.268;8.308;2023-09-19T06:50:22;2.88;;;2.08;;
37657;SDS011;23500;53.268;8.308;2023-09-19T06:52:49;5.07;;;2.17;;
37657;SDS011;23500;53.268;8.308;2023-09-19T06:55:20;2.85;;;1.60;;
37657;SDS011;23500;53.268;8.308;2023-09-19T06:57:50;5.40;;;2.00;;
37657;SDS011;23500;53.268;8.308;2023-09-19T07:00:16;3.50;;;1.90;;
37657;SDS011;23500;53.268;8.308;2023-09-19T07:03:05;5.32;;;1.88;;
37657;SDS011;23500;53.268;8.308;2023-09-19T07:05:33;4.70;;;2.15;;
37657;SDS011;23500;53.268;8.308;2023-09-19T07:08:02;3.22;;;1.80;;
37657;SDS011;23500;53.268;8.308;2023-09-19T07:10:29;3.28;;;1.90;;
37657;SDS011;23500;53.268;8.308;2023-09-19T07:15:22;2.67;;;1.95;;
37657;SDS011;23500;53.268;8.308;2023-09-19T07:17:48;4.38;;;2.08;;
37657;SDS011;23500;53.268;8.308;2023-09-19T07:20:14;5.30;;;1.80;;
37657;SDS011;23500;53.268;8.308;2023-09-19T07:22:41;2.47;;;1.80;;
37657;SDS011;23500;53.268;8.308;2023-09-19T07:25:07;3.30;;;1.95;;
37657;SDS011;23500;53.268;8.308;2023-09-19T07:27:33;4.75;;;1.80;;
37657;SDS011;23500;53.268;8.308;2023-09-19T07:29:59;3.58;;;1.60;;
37657;SDS011;23500;53.268;8.308;2023-09-19T07:32:24;2.25;;;1.50;;
37657;SDS011;23500;53.268;8.308;2023-09-19T07:34:50;4.22;;;1.83;;
37657;SDS011;23500;53.268;8.308;2023-09-19T07:37:16;3.20;;;1.70;;
37657;SDS011;23500;53.268;8.308;2023-09-19T07:39:42;2.63;;;1.73;;
37657;SDS011;23500;53.268;8.308;2023-09-19T07:42:08;4.97;;;1.42;;
37657;SDS011;23500;53.268;8.308;2023-09-19T07:44:36;3.75;;;1.65;;
37657;SDS011;23500;53.268;8.308;2023-09-19T07:47:02;3.65;;;1.52;;
37657;SDS011;23500;53.268;8.308;2023-09-19T07:49:28;3.15;;;1.55;;
37657;SDS011;23500;53.268;8.308;2023-09-19T07:51:54;3.30;;;1.55;;
37657;SDS011;23500;53.268;8.308;2023-09-19T07:54:21;3.17;;;1.65;;
37657;SDS011;23500;53.268;8.308;2023-09-19T07:56:47;3.70;;;1.50;;
37657;SDS011;23500;53.268;8.308;2023-09-19T07:59:13;3.15;;;1.65;;
37657;SDS011;23500;53.268;8.308;2023-09-19T08:01:39;3.33;;;1.58;;
37657;SDS011;23500;53.268;8.308;2023-09-19T08:04:09;3.80;;;1.60;;
37657;SDS011;23500;53.268;8.308;2023-09-19T08:06:35;4.07;;;1.70;;
37657;SDS011;23500;53.268;8.308;2023-09-19T08:09:03;2.75;;;1.70;;
37657;SDS011;23500;53.268;8.308;2023-09-19T08:11:32;3.15;;;1.48;;
37657;SDS011;23500;53.268;8.308;2023-09-19T08:13:58;4.22;;;2.00;;
37657;SDS011;23500;53.268;8.308;2023-09-19T08:16:24;3.97;;;1.70;;
37657;SDS011;23500;53.268;8.308;2023-09-19T08:18:50;3.25;;;1.60;;
37657;SDS011;23500;53.268;8.308;2023-09-19T08:21:21;4.22;;;1.40;;
37657;SDS011;23500;53.268;8.308;2023-09-19T08:23:48;2.72;;;1.55;;
37657;SDS011;23500;53.268;8.308;2023-09-19T08:26:14;4.05;;;1.38;;
37657;SDS011;23500;53.268;8.308;2023-09-19T08:28:40;3.33;;;1.35;;
37657;SDS011;23500;53.268;8.308;2023-09-19T08:31:06;3.75;;;1.60;;
37657;SDS011;23500;53.268;8.308;2023-09-19T08:33:34;4.78;;;1.80;;
37657;SDS011;23500;53.268;8.308;2023-09-19T08:36:01;3.17;;;1.70;;
37657;SDS011;23500;53.268;8.308;2023-09-19T08:38:31;2.40;;;1.40;;
37657;SDS011;23500;53.268;8.308;2023-09-19T08:40:58;3.35;;;1.45;;
37657;SDS011;23500;53.268;8.308;2023-09-19T08:43:25;4.60;;;1.65;;
37657;SDS011;23500;53.268;8.308;2023-09-19T08:46:14;4.63;;;1.73;;
37657;SDS011;23500;53.268;8.308;2023-09-19T08:48:49;4.75;;;1.90;;
37657;SDS011;23500;53.268;8.308;2023-09-19T08:51:39;2.67;;;1.50;;
37657;SDS011;23500;53.268;8.308;2023-09-19T08:54:10;3.80;;;1.63;;
37657;SDS011;23500;53.268;8.308;2023-09-19T08:56:47;4.32;;;1.60;;
37657;SDS011;23500;53.268;8.308;2023-09-19T08:59:15;3.78;;;1.60;;
37657;SDS011;23500;53.268;8.308;2023-09-19T09:01:43;3.67;;;1.58;;
37657;SDS011;23500;53.268;8.308;2023-09-19T09:04:11;4.18;;;1.60;;
37657;SDS011;23500;53.268;8.308;2023-09-19T09:06:38;3.85;;;1.67;;
37657;SDS011;23500;53.268;8.308;2023-09-19T09:09:05;3.67;;;1.77;;
37657;SDS011;23500;53.268;8.308;2023-09-19T09:11:32;3.33;;;1.70;;
37657;SDS011;23500;53.268;8.308;2023-09-19T09:13:58;3.38;;;1.63;;
37657;SDS011;23500;53.268;8.308;2023-09-19T09:16:25;2.17;;;1.25;;
37657;SDS011;23500;53.268;8.308;2023-09-19T09:18:51;2.75;;;1.48;;
37657;SDS011;23500;53.268;8.308;2023-09-19T09:21:19;4.53;;;1.70;;
37657;SDS011;23500;53.268;8.308;2023-09-19T09:23:50;2.97;;;1.50;;
37657;SDS011;23500;53.268;8.308;2023-09-19T09:26:17;3.65;;;1.73;;
37657;SDS011;23500;53.268;8.308;2023-09-19T09:29:10;4.25;;;1.65;;
37657;SDS011;23500;53.268;8.308;2023-09-19T09:31:37;4.05;;;1.90;;
37657;SDS011;23500;53.268;8.308;2023-09-19T09:34:03;3.45;;;1.40;;
37657;SDS011;23500;53.268;8.308;2023-09-19T09:36:35;3.40;;;1.67;;
37657;SDS011;23500;53.268;8.308;2023-09-19T09:39:03;3.60;;;1.58;;
37657;SDS011;23500;53.268;8.308;2023-09-19T09:41:41;2.30;;;1.10;;
37657;SDS011;23500;53.268;8.308;2023-09-19T09:44:15;3.17;;;1.67;;
37657;SDS011;23500;53.268;8.308;2023-09-19T09:46:43;3.00;;;1.45;;
37657;SDS011;23500;53.268;8.308;2023-09-19T09:49:22;2.83;;;1.38;;
37657;SDS011;23500;53.268;8.308;2023-09-19T09:51:59;3.03;;;1.30;;
37657;SDS011;23500;53.268;8.308;2023-09-19T09:54:33;2.78;;;1.40;;
37657;SDS011;23500;53.268;8.308;2023-09-19T09:57:07;2.47;;;1.35;;
37657;SDS011;23500;53.268;8.308;2023-09-19T09:59:46;4.07;;;1.40;;
37657;SDS011;23500;53.268;8.308;2023-09-19T10:02:38;3.10;;;1.42;;
37657;SDS011;23500;53.268;8.308;2023-09-19T10:05:15;3.75;;;1.55;;
37657;SDS011;23500;53.268;8.308;2023-09-19T10:07:44;3.92;;;1.58;;
37657;SDS011;23500;53.268;8.308;2023-09-19T10:10:35;3.70;;;1.70;;
37657;SDS011;23500;53.268;8.308;2023-09-19T10:13:11;2.63;;;1.20;;
37657;SDS011;23500;53.268;8.308;2023-09-19T10:15:39;1.98;;;1.60;;
37657;SDS011;23500;53.268;8.308;2023-09-19T10:18:11;2.28;;;1.48;;
37657;SDS011;23500;53.268;8.308;2023-09-19T10:20:43;4.47;;;1.65;;
37657;SDS011;23500;53.268;8.308;2023-09-19T10:23:11;2.72;;;1.35;;
37657;SDS011;23500;53.268;8.308;2023-09-19T10:25:38;2.60;;;1.45;;
37657;SDS011;23500;53.268;8.308;2023-09-19T10:28:09;2.45;;;1.33;;
37657;SDS011;23500;53.268;8.308;2023-09-19T10:30:45;3.42;;;1.42;;
37657;SDS011;23500;53.268;8.308;2023-09-19T10:33:16;3.47;;;1.50;;
37657;SDS011;23500;53.268;8.308;2023-09-19T10:35:46;5.13;;;1.75;;
37657;SDS011;23500;53.268;8.308;2023-09-19T10:38:13;3.97;;;1.58;;
37657;SDS011;23500;53.268;8.308;2023-09-19T10:40:44;2.30;;;1.40;;
37657;SDS011;23500;53.268;8.308;2023-09-19T10:43:15;2.40;;;1.30;;
37657;SDS011;23500;53.268;8.308;2023-09-19T10:45:46;2.88;;;1.30;;
37657;SDS011;23500;53.268;8.308;2023-09-19T10:48:14;2.22;;;1.35;;
37657;SDS011;23500;53.268;8.308;2023-09-19T10:53:24;4.38;;;1.73;;
37657;SDS011;23500;53.268;8.308;2023-09-19T10:55:55;2.22;;;1.38;;
37657;SDS011;23500;53.268;8.308;2023-09-19T10:58:28;1.80;;;1.20;;
37657;SDS011;23500;53.268;8.308;2023-09-19T11:01:04;4.30;;;1.52;;
37657;SDS011;23500;53.268;8.308;2023-09-19T11:03:40;3.13;;;1.52;;
37657;SDS011;23500;53.268;8.308;2023-09-19T11:06:12;3.63;;;1.50;;
37657;SDS011;23500;53.268;8.308;2023-09-19T11:14:15;3.97;;;1.52;;
37657;SDS011;23500;53.268;8.308;2023-09-19T11:30:32;8.38;;;2.13;;
37657;SDS011;23500;53.268;8.308;2023-09-19T11:46:28;16.20;;;3.30;;
37657;SDS011;23500;53.268;8.308;2023-09-19T11:49:13;21.08;;;3.47;;
37657;SDS011;23500;53.268;8.308;2023-09-19T11:51:45;13.15;;;3.22;;
37657;SDS011;23500;53.268;8.308;2023-09-19T11:54:13;16.13;;;2.90;;
37657;SDS011;23500;53.268;8.308;2023-09-19T11:56:53;10.38;;;3.00;;
37657;SDS011;23500;53.268;8.308;2023-09-19T11:59:23;11.50;;;3.28;;
37657;SDS011;23500;53.268;8.308;2023-09-19T12:01:54;18.92;;;3.45;;
37657;SDS011;23500;53.268;8.308;2023-09-19T12:07:11;16.15;;;3.45;;
37657;SDS011;23500;53.268;8.308;2023-09-19T12:12:19;11.52;;;2.95;;
37657;SDS011;23500;53.268;8.308;2023-09-19T12:14:49;13.32;;;2.88;;
37657;SDS011;23500;53.268;8.308;2023-09-19T12:17:15;12.35;;;2.80;;
37657;SDS011;23500;53.268;8.308;2023-09-19T12:19:55;12.98;;;2.70;;
37657;SDS011;23500;53.268;8.308;2023-09-19T12:22:22;12.52;;;2.95;;
37657;SDS011;23500;53.268;8.308;2023-09-19T12:24:48;9.40;;;2.65;;
37657;SDS011;23500;53.268;8.308;2023-09-19T12:27:15;9.05;;;3.20;;
37657;SDS011;23500;53.268;8.308;2023-09-19T12:29:44;8.73;;;2.55;;
37657;SDS011;23500;53.268;8.308;2023-09-19T12:32:13;12.77;;;2.78;;
37657;SDS011;23500;53.268;8.308;2023-09-19T12:34:42;9.63;;;2.70;;
37657;SDS011;23500;53.268;8.308;2023-09-19T12:37:16;8.93;;;2.67;;
37657;SDS011;23500;53.268;8.308;2023-09-19T12:39:52;10.85;;;2.72;;
37657;SDS011;23500;53.268;8.308;2023-09-19T12:42:24;16.27;;;3.00;;
37657;SDS011;23500;53.268;8.308;2023-09-19T12:44:57;10.82;;;2.45;;
37657;SDS011;23500;53.268;8.308;2023-09-19T12:47:26;8.48;;;2.58;;
37657;SDS011;23500;53.268;8.308;2023-09-19T12:50:13;7.40;;;2.60;;
37657;SDS011;23500;53.268;8.308;2023-09-19T12:52:46;12.90;;;2.60;;
37657;SDS011;23500;53.268;8.308;2023-09-19T12:55:27;9.55;;;2.67;;
37657;SDS011;23500;53.268;8.308;2023-09-19T13:00:40;10.80;;;2.97;;
37657;SDS011;23500;53.268;8.308;2023-09-19T13:03:26;18.95;;;3.45;;
37657;SDS011;23500;53.268;8.308;2023-09-19T13:05:58;10.50;;;3.08;;
37657;SDS011;23500;53.268;8.308;2023-09-19T13:08:29;14.82;;;2.78;;
37657;SDS011;23500;53.268;8.308;2023-09-19T13:11:03;10.70;;;3.05;;
37657;SDS011;23500;53.268;8.308;2023-09-19T13:13:47;13.40;;;2.85;;
37657;SDS011;23500;53.268;8.308;2023-09-19T13:16:15;14.98;;;3.13;;
37657;SDS011;23500;53.268;8.308;2023-09-19T13:18:48;12.90;;;3.42;;
37657;SDS011;23500;53.268;8.308;2023-09-19T13:21:40;8.52;;;2.53;;
37657;SDS011;23500;53.268;8.308;2023-09-19T13:24:18;12.02;;;2.70;;
37657;SDS011;23500;53.268;8.308;2023-09-19T13:26:45;14.05;;;3.13;;
37657;SDS011;23500;53.268;8.308;2023-09-19T13:29:11;15.10;;;2.90;;
37657;SDS011;23500;53.268;8.308;2023-09-19T13:31:38;11.90;;;2.58;;
37657;SDS011;23500;53.268;8.308;2023-09-19T13:34:06;11.80;;;2.95;;
37657;SDS011;23500;53.268;8.308;2023-09-19T13:36:32;10.55;;;2.92;;
37657;SDS011;23500;53.268;8.308;2023-09-19T13:38:58;8.48;;;2.20;;
37657;SDS011;23500;53.268;8.308;2023-09-19T13:41:25;15.20;;;3.13;;
37657;SDS011;23500;53.268;8.308;2023-09-19T13:43:51;10.77;;;3.13;;
37657;SDS011;23500;53.268;8.308;2023-09-19T13:46:17;7.85;;;3.03;;
37657;SDS011;23500;53.268;8.308;2023-09-19T13:48:50;13.63;;;2.38;;
37657;SDS011;23500;53.268;8.308;2023-09-19T13:51:20;10.43;;;3.40;;
37657;SDS011;23500;53.268;8.308;2023-09-19T13:53:48;8.05;;;2.88;;
37657;SDS011;23500;53.268;8.308;2023-09-19T13:56:15;10.95;;;3.10;;
37657;SDS011;23500;53.268;8.308;2023-09-19T13:58:41;8.68;;;2.38;;
37657;SDS011;23500;53.268;8.308;2023-09-19T14:01:07;9.75;;;2.60;;
37657;SDS011;23500;53.268;8.308;2023-09-19T14:03:38;12.93;;;2.78;;
37657;SDS011;23500;53.268;8.308;2023-09-19T14:06:21;12.25;;;3.08;;
37657;SDS011;23500;53.268;8.308;2023-09-19T14:08:46;10.35;;;2.83;;
37657;SDS011;23500;53.268;8.308;2023-09-19T14:11:13;13.95;;;3.15;;
37657;SDS011;23500;53.268;8.308;2023-09-19T14:13:39;9.73;;;2.85;;
37657;SDS011;23500;53.268;8.308;2023-09-19T14:16:05;14.23;;;2.75;;
37657;SDS011;23500;53.268;8.308;2023-09-19T14:18:33;10.10;;;2.70;;
37657;SDS011;23500;53.268;8.308;2023-09-19T14:21:06;9.60;;;3.08;;
37657;SDS011;23500;53.268;8.308;2023-09-19T14:23:36;9.73;;;3.00;;
37657;SDS011;23500;53.268;8.308;2023-09-19T14:26:03;8.50;;;2.55;;
37657;SDS011;23500;53.268;8.308;2023-09-19T14:28:30;16.15;;;3.45;;
37657;SDS011;23500;53.268;8.308;2023-09-19T14:31:03;8.82;;;2.45;;
37657;SDS011;23500;53.268;8.308;2023-09-19T14:33:33;19.35;;;3.58;;
37657;SDS011;23500;53.268;8.308;2023-09-19T14:51:31;16.63;;;3.45;;
37657;SDS011;23500;53.268;8.308;2023-09-19T14:53:56;14.32;;;2.70;;
37657;SDS011;23500;53.268;8.308;2023-09-19T14:56:23;12.15;;;3.10;;
37657;SDS011;23500;53.268;8.308;2023-09-19T14:58:50;15.38;;;4.63;;
37657;SDS011;23500;53.268;8.308;2023-09-19T15:01:16;15.35;;;3.45;;
37657;SDS011;23500;53.268;8.308;2023-09-19T15:03:42;12.05;;;3.65;;
37657;SDS011;23500;53.268;8.308;2023-09-19T15:06:09;10.38;;;3.47;;
37657;SDS011;23500;53.268;8.308;2023-09-19T15:08:42;15.13;;;3.47;;
37657;SDS011;23500;53.268;8.308;2023-09-19T15:11:12;16.38;;;3.85;;
37657;SDS011;23500;53.268;8.308;2023-09-19T15:13:42;16.35;;;3.95;;
37657;SDS011;23500;53.268;8.308;2023-09-19T15:16:09;10.70;;;3.53;;
37657;SDS011;23500;53.268;8.308;2023-09-19T15:18:37;15.15;;;3.67;;
37657;SDS011;23500;53.268;8.308;2023-09-19T15:21:04;13.55;;;3.70;;
37657;SDS011;23500;53.268;8.308;2023-09-19T15:23:31;21.05;;;4.20;;
37657;SDS011;23500;53.268;8.308;2023-09-19T15:26:01;17.40;;;3.95;;
37657;SDS011;23500;53.268;8.308;2023-09-19T15:28:27;23.40;;;4.78;;
37657;SDS011;23500;53.268;8.308;2023-09-19T15:31:01;22.77;;;4.35;;
37657;SDS011;23500;53.268;8.308;2023-09-19T15:33:37;17.75;;;4.10;;
37657;SDS011;23500;53.268;8.308;2023-09-19T15:38:31;13.75;;;3.85;;
37657;SDS011;23500;53.268;8.308;2023-09-19T15:41:18;23.65;;;4.85;;
37657;SDS011;23500;53.268;8.308;2023-09-19T15:43:49;41.97;;;8.77;;
37657;SDS011;23500;53.268;8.308;2023-09-19T15:46:14;55.78;;;12.40;;
37657;SDS011;23500;53.268;8.308;2023-09-19T15:48:41;82.95;;;16.35;;
37657;SDS011;23500;53.268;8.308;2023-09-19T15:51:08;64.70;;;14.43;;
37657;SDS011;23500;53.268;8.308;2023-09-19T15:53:46;61.47;;;11.32;;
37657;SDS011;23500;53.268;8.308;2023-09-19T15:56:16;57.03;;;12.57;;
37657;SDS011;23500;53.268;8.308;2023-09-19T15:58:43;48.05;;;11.55;;
37657;SDS011;23500;53.268;8.308;2023-09-19T16:01:10;51.30;;;12.02;;
37657;SDS011;23500;53.268;8.308;2023-09-19T16:03:37;46.50;;;11.38;;
37657;SDS011;23500;53.268;8.308;2023-09-19T16:06:10;51.33;;;11.50;;
37657;SDS011;23500;53.268;8.308;2023-09-19T16:08:40;45.60;;;11.18;;
37657;SDS011;23500;53.268;8.308;2023-09-19T16:11:07;43.85;;;10.27;;
37657;SDS011;23500;53.268;8.308;2023-09-19T16:13:34;49.20;;;10.77;;
37657;SDS011;23500;53.268;8.308;2023-09-19T16:16:01;47.00;;;10.32;;
37657;SDS011;23500;53.268;8.308;2023-09-19T16:18:27;47.75;;;10.13;;
37657;SDS011;23500;53.268;8.308;2023-09-19T16:20:52;44.40;;;10.50;;
37657;SDS011;23500;53.268;8.308;2023-09-19T16:23:18;41.67;;;10.50;;
37657;SDS011;23500;53.268;8.308;2023-09-19T16:25:44;37.10;;;9.55;;